createdAt,value
2017-12-12T20:17:00.854Z,20.18
2017-12-12T20:19:16.913Z,20.14
2017-12-12T20:21:29.272Z,20.09
2017-12-12T20:23:37.156Z,20.04
2017-12-12T20:25:51.044Z,20.08
2017-12-12T20:28:11.200Z,20.05
2017-12-12T20:30:30.533Z,19.99
2017-12-12T20:32:39.390Z,20.12
2017-12-12T20:34:51.846Z,20.08
2017-12-12T20:37:01.331Z,20.09
2017-12-12T20:39:09.684Z,20.08
2017-12-12T20:41:18.439Z,20.02
2017-12-12T20:43:26.606Z,19.96
2017-12-12T20:45:33.488Z,20.01
2017-12-12T20:47:40.649Z,19.99
2017-12-12T20:49:48.426Z,20.00
2017-12-12T20:51:56.137Z,20.05
2017-12-12T20:54:04.608Z,19.97
2017-12-12T20:56:12.713Z,20.03
2017-12-12T20:58:20.345Z,19.97
2017-12-12T21:00:27.695Z,19.96
2017-12-12T21:02:40.701Z,20.06
2017-12-12T21:04:48.583Z,20.01
2017-12-12T21:07:03.360Z,19.95
2017-12-12T21:09:12.325Z,19.94
2017-12-12T21:11:27.450Z,20.07
2017-12-12T21:13:37.955Z,20.00
2017-12-12T21:15:51.494Z,19.97
2017-12-12T21:18:02.372Z,20.03
2017-12-12T21:20:15.204Z,20.02
2017-12-12T21:22:31.943Z,20.04
2017-12-12T21:25:02.521Z,20.12
2017-12-12T21:27:17.182Z,20.02
2017-12-12T21:29:36.290Z,19.93
2017-12-12T21:32:03.639Z,19.95
2017-12-12T21:36:39.681Z,20.19
2017-12-12T21:41:22.439Z,20.17
2017-12-12T21:43:36.128Z,20.19
2017-12-12T21:45:45.749Z,20.14
2017-12-12T21:47:56.751Z,20.15
2017-12-12T21:50:13.487Z,20.18
2017-12-12T21:52:35.283Z,20.26
2017-12-12T21:54:58.787Z,20.14
2017-12-12T21:57:15.239Z,20.18
2017-12-12T21:59:28.386Z,20.24
2017-12-12T22:01:45.670Z,20.23
2017-12-12T22:04:00.770Z,20.32
2017-12-12T22:06:14.722Z,20.32
2017-12-12T22:08:23.157Z,20.33
2017-12-12T22:10:34.019Z,20.32
2017-12-12T22:12:43.666Z,20.34
2017-12-12T22:15:07.800Z,20.38
2017-12-12T22:17:20.422Z,20.31
2017-12-12T22:19:30.783Z,20.35
2017-12-12T22:21:44.313Z,20.39
2017-12-12T22:23:56.224Z,20.28
2017-12-12T22:26:16.162Z,20.35
2017-12-12T22:28:26.633Z,20.15
2017-12-12T22:30:41.134Z,20.31
2017-12-12T22:32:51.942Z,20.29
2017-12-12T22:35:01.255Z,20.26
2017-12-12T22:37:10.274Z,20.26
2017-12-12T22:39:21.187Z,20.26
2017-12-12T22:41:31.337Z,20.22
2017-12-12T22:43:40.790Z,20.34
2017-12-12T22:45:53.580Z,20.23
2017-12-12T22:48:04.643Z,20.25
2017-12-12T22:50:14.760Z,20.17
2017-12-12T22:54:41.672Z,20.18
2017-12-12T22:56:59.766Z,20.27
2017-12-12T22:59:10.057Z,20.20
2017-12-12T23:01:23.088Z,20.17
2017-12-12T23:03:31.773Z,20.16
2017-12-12T23:08:09.765Z,20.19
2017-12-12T23:10:17.813Z,20.18
2017-12-12T23:12:27.691Z,20.30
2017-12-12T23:14:38.379Z,20.23
2017-12-12T23:16:48.208Z,20.19
2017-12-12T23:18:54.745Z,20.23
2017-12-12T23:21:04.866Z,20.23
2017-12-12T23:23:14.671Z,20.17
2017-12-12T23:25:23.067Z,20.16
2017-12-12T23:27:31.969Z,20.20
2017-12-12T23:29:38.598Z,20.13
2017-12-12T23:31:47.418Z,20.21
2017-12-12T23:33:55.027Z,20.20
2017-12-12T23:36:03.915Z,20.26
2017-12-12T23:38:10.401Z,20.18
2017-12-12T23:40:19.975Z,20.19
2017-12-12T23:42:28.305Z,20.14
2017-12-12T23:44:35.084Z,20.17
2017-12-12T23:46:42.884Z,20.25
2017-12-12T23:48:49.394Z,20.05
2017-12-12T23:50:57.267Z,19.98
2017-12-12T23:53:04.451Z,19.86
2017-12-12T23:55:11.100Z,19.83
2017-12-12T23:57:17.996Z,19.80
2017-12-12T23:59:28.120Z,19.69
